Terminal Aerodrome Forecast
Issued by NWS

Current Version | Previous Version | Text Only | Print | Product List | Glossary On
Versions: 1 2 3 4 5 6 7 8 9 10 11 12 13 14 15 16
000
FTUS41 KBTV 221132
TAFMSS
TAF
KMSS 221132Z 2212/2312 VRB03KT P6SM SCT070 OVC120
     FM221500 21005KT P6SM VCSH SCT045 BKN070
     FM222000 10006KT P6SM -SHRA BKN045 OVC070
     FM230100 VRB03KT P6SM BKN028 OVC035
     FM230500 VRB03KT 6SM BR VCSH BKN045
     FM230800 25004KT 5SM BR SCT090=

USA.gov is the U.S. government's official web portal to all federal, state and local government web resources and services.